sensor_id;sensor_type;location;lat;lon;timestamp;pressure;altitude;pressure_sealevel;temperature;humidity
68075;BME280;54864;52.002;5.468;2023-08-31T00:01:02;100630.03;;;13.11;82.88
68075;BME280;54864;52.002;5.468;2023-08-31T00:02:04;100621.59;;;13.05;82.54
68075;BME280;54864;52.002;5.468;2023-08-31T00:03:06;100622.06;;;13.11;83.02
68075;BME280;54864;52.002;5.468;2023-08-31T00:04:07;100615.50;;;13.18;82.78
68075;BME280;54864;52.002;5.468;2023-08-31T00:05:15;100615.25;;;13.07;83.85
68075;BME280;54864;52.002;5.468;2023-08-31T00:06:15;100618.75;;;13.08;83.98
68075;BME280;54864;52.002;5.468;2023-08-31T00:07:17;100624.72;;;13.11;84.03
68075;BME280;54864;52.002;5.468;2023-08-31T00:08:18;100626.44;;;13.12;83.92
68075;BME280;54864;52.002;5.468;2023-08-31T00:09:21;100620.09;;;13.15;83.65
68075;BME280;54864;52.002;5.468;2023-08-31T00:10:23;100624.03;;;13.23;83.18
68075;BME280;54864;52.002;5.468;2023-08-31T00:11:24;100621.66;;;13.19;83.23
68075;BME280;54864;52.002;5.468;2023-08-31T00:12:26;100623.19;;;13.23;83.25
68075;BME280;54864;52.002;5.468;2023-08-31T00:13:30;100621.28;;;13.25;83.15
68075;BME280;54864;52.002;5.468;2023-08-31T00:14:31;100621.03;;;13.29;82.66
68075;BME280;54864;52.002;5.468;2023-08-31T00:15:33;100616.47;;;13.31;82.31
68075;BME280;54864;52.002;5.468;2023-08-31T00:16:40;100623.38;;;13.34;82.26
68075;BME280;54864;52.002;5.468;2023-08-31T00:17:41;100615.25;;;13.37;81.76
68075;BME280;54864;52.002;5.468;2023-08-31T00:18:46;100622.44;;;13.35;81.89
68075;BME280;54864;52.002;5.468;2023-08-31T00:19:47;100623.56;;;13.31;81.28
68075;BME280;54864;52.002;5.468;2023-08-31T00:20:49;100623.56;;;13.31;81.49
68075;BME280;54864;52.002;5.468;2023-08-31T00:21:49;100631.34;;;13.34;81.12
68075;BME280;54864;52.002;5.468;2023-08-31T00:22:51;100627.94;;;13.32;80.93
68075;BME280;54864;52.002;5.468;2023-08-31T00:23:52;100630.66;;;13.30;80.85
68075;BME280;54864;52.002;5.468;2023-08-31T00:24:54;100621.09;;;13.28;80.72
68075;BME280;54864;52.002;5.468;2023-08-31T00:25:55;100632.81;;;13.24;80.98
68075;BME280;54864;52.002;5.468;2023-08-31T00:27:06;100625.91;;;13.21;81.02
68075;BME280;54864;52.002;5.468;2023-08-31T00:28:09;100629.59;;;13.19;81.60
68075;BME280;54864;52.002;5.468;2023-08-31T00:29:11;100627.91;;;13.18;81.31
68075;BME280;54864;52.002;5.468;2023-08-31T00:30:15;100622.59;;;13.18;81.91
68075;BME280;54864;52.002;5.468;2023-08-31T00:31:19;100620.72;;;13.20;81.73
68075;BME280;54864;52.002;5.468;2023-08-31T00:32:23;100618.81;;;13.22;82.24
68075;BME280;54864;52.002;5.468;2023-08-31T00:33:25;100619.88;;;13.19;82.85
68075;BME280;54864;52.002;5.468;2023-08-31T00:34:26;100621.03;;;13.14;83.21
68075;BME280;54864;52.002;5.468;2023-08-31T00:35:28;100623.38;;;13.20;83.30
68075;BME280;54864;52.002;5.468;2023-08-31T00:36:29;100625.25;;;13.18;82.95
68075;BME280;54864;52.002;5.468;2023-08-31T00:37:30;100618.81;;;13.22;83.08
68075;BME280;54864;52.002;5.468;2023-08-31T00:38:33;100615.31;;;13.21;82.75
68075;BME280;54864;52.002;5.468;2023-08-31T00:39:36;100616.84;;;13.25;82.24
68075;BME280;54864;52.002;5.468;2023-08-31T00:40:39;100615.91;;;13.26;82.31
68075;BME280;54864;52.002;5.468;2023-08-31T00:41:45;100613.94;;;13.30;82.27
68075;BME280;54864;52.002;5.468;2023-08-31T00:42:46;100613.94;;;13.30;81.71
68075;BME280;54864;52.002;5.468;2023-08-31T00:43:48;100610.34;;;13.31;81.57
68075;BME280;54864;52.002;5.468;2023-08-31T00:44:48;100609.28;;;13.33;81.80
68075;BME280;54864;52.002;5.468;2023-08-31T00:45:51;100612.88;;;13.32;81.95
68075;BME280;54864;52.002;5.468;2023-08-31T00:46:56;100614.50;;;13.35;81.93
68075;BME280;54864;52.002;5.468;2023-08-31T00:48:00;100612.03;;;13.32;81.90
68075;BME280;54864;52.002;5.468;2023-08-31T00:49:01;100609.75;;;13.26;82.59
68075;BME280;54864;52.002;5.468;2023-08-31T00:50:06;100607.69;;;13.31;82.14
68075;BME280;54864;52.002;5.468;2023-08-31T00:51:10;100609.56;;;13.29;82.49
68075;BME280;54864;52.002;5.468;2023-08-31T00:52:11;100604.94;;;13.32;82.60
68075;BME280;54864;52.002;5.468;2023-08-31T00:53:14;100614.22;;;13.40;82.63
68075;BME280;54864;52.002;5.468;2023-08-31T00:54:18;100617.72;;;13.40;82.78
68075;BME280;54864;52.002;5.468;2023-08-31T00:55:26;100613.00;;;13.45;82.74
68075;BME280;54864;52.002;5.468;2023-08-31T00:56:27;100612.44;;;13.40;83.30
68075;BME280;54864;52.002;5.468;2023-08-31T00:57:32;100619.53;;;13.40;83.27
68075;BME280;54864;52.002;5.468;2023-08-31T00:58:36;100615.94;;;13.41;83.63
68075;BME280;54864;52.002;5.468;2023-08-31T00:59:41;100614.03;;;13.43;83.55
68075;BME280;54864;52.002;5.468;2023-08-31T01:00:47;100610.34;;;13.45;84.06
68075;BME280;54864;52.002;5.468;2023-08-31T01:01:58;100613.66;;;13.49;84.16
68075;BME280;54864;52.002;5.468;2023-08-31T01:03:06;100612.72;;;13.50;84.39
68075;BME280;54864;52.002;5.468;2023-08-31T01:04:17;100612.34;;;13.56;84.91
68075;BME280;54864;52.002;5.468;2023-08-31T01:05:28;100613.66;;;13.63;84.93
68075;BME280;54864;52.002;5.468;2023-08-31T01:06:41;100613.59;;;13.64;85.51
68075;BME280;54864;52.002;5.468;2023-08-31T01:07:55;100620.03;;;13.75;85.39
68075;BME280;54864;52.002;5.468;2023-08-31T01:09:02;100618.63;;;13.69;85.31
68075;BME280;54864;52.002;5.468;2023-08-31T01:10:13;100620.72;;;13.78;85.70
68075;BME280;54864;52.002;5.468;2023-08-31T01:11:27;100623.25;;;13.80;85.42
68075;BME280;54864;52.002;5.468;2023-08-31T01:12:37;100618.81;;;13.80;85.57
68075;BME280;54864;52.002;5.468;2023-08-31T01:13:44;100623.81;;;13.85;85.03
68075;BME280;54864;52.002;5.468;2023-08-31T01:14:51;100625.72;;;13.83;85.29
68075;BME280;54864;52.002;5.468;2023-08-31T01:15:59;100619.19;;;13.74;85.38
68075;BME280;54864;52.002;5.468;2023-08-31T01:17:04;100617.69;;;13.84;85.38
68075;BME280;54864;52.002;5.468;2023-08-31T01:18:11;100622.03;;;13.85;85.53
68075;BME280;54864;52.002;5.468;2023-08-31T01:19:27;100615.38;;;13.64;86.53
68075;BME280;54864;52.002;5.468;2023-08-31T01:20:34;100616.75;;;13.71;87.91
68075;BME280;54864;52.002;5.468;2023-08-31T01:21:42;100619.00;;;13.77;87.61
68075;BME280;54864;52.002;5.468;2023-08-31T01:22:51;100616.72;;;13.85;87.40
68075;BME280;54864;52.002;5.468;2023-08-31T01:23:57;100618.25;;;13.89;87.31
68075;BME280;54864;52.002;5.468;2023-08-31T01:24:59;100620.91;;;13.89;87.45
68075;BME280;54864;52.002;5.468;2023-08-31T01:26:04;100617.88;;;13.81;88.17
68075;BME280;54864;52.002;5.468;2023-08-31T01:27:06;100622.22;;;13.82;89.51
68075;BME280;54864;52.002;5.468;2023-08-31T01:28:13;100623.16;;;13.95;89.27
68075;BME280;54864;52.002;5.468;2023-08-31T01:29:21;100620.03;;;14.03;88.90
68075;BME280;54864;52.002;5.468;2023-08-31T01:30:22;100618.31;;;14.02;89.63
68075;BME280;54864;52.002;5.468;2023-08-31T01:31:25;100625.13;;;14.06;89.84
68075;BME280;54864;52.002;5.468;2023-08-31T01:32:26;100636.22;;;14.13;90.01
68075;BME280;54864;52.002;5.468;2023-08-31T01:33:29;100621.72;;;14.18;89.61
68075;BME280;54864;52.002;5.468;2023-08-31T01:34:30;100630.22;;;14.23;89.48
68075;BME280;54864;52.002;5.468;2023-08-31T01:35:37;100625.88;;;14.22;89.92
68075;BME280;54864;52.002;5.468;2023-08-31T01:36:44;100622.16;;;14.25;89.97
68075;BME280;54864;52.002;5.468;2023-08-31T01:37:50;100622.66;;;14.32;89.71
68075;BME280;54864;52.002;5.468;2023-08-31T01:38:58;100622.72;;;14.30;89.42
68075;BME280;54864;52.002;5.468;2023-08-31T01:40:07;100623.31;;;14.35;89.08
68075;BME280;54864;52.002;5.468;2023-08-31T01:41:14;100620.47;;;14.38;89.23
68075;BME280;54864;52.002;5.468;2023-08-31T01:42:19;100623.50;;;14.46;88.28
68075;BME280;54864;52.002;5.468;2023-08-31T01:43:23;100620.00;;;14.46;87.61
68075;BME280;54864;52.002;5.468;2023-08-31T01:44:27;100620.09;;;14.44;87.19
68075;BME280;54864;52.002;5.468;2023-08-31T01:45:30;100622.56;;;14.47;86.53
68075;BME280;54864;52.002;5.468;2023-08-31T01:46:34;100617.44;;;14.44;86.75
68075;BME280;54864;52.002;5.468;2023-08-31T01:47:35;100620.84;;;14.46;86.11
68075;BME280;54864;52.002;5.468;2023-08-31T01:48:39;100618.94;;;14.48;85.75
68075;BME280;54864;52.002;5.468;2023-08-31T01:49:41;100617.72;;;14.40;86.12
68075;BME280;54864;52.002;5.468;2023-08-31T01:50:47;100614.22;;;14.39;86.46
68075;BME280;54864;52.002;5.468;2023-08-31T01:51:51;100606.75;;;14.32;86.62
68075;BME280;54864;52.002;5.468;2023-08-31T01:52:55;100614.41;;;14.36;86.38
68075;BME280;54864;52.002;5.468;2023-08-31T01:53:58;100611.75;;;14.36;86.16
68075;BME280;54864;52.002;5.468;2023-08-31T01:54:59;100616.59;;;14.44;85.59
68075;BME280;54864;52.002;5.468;2023-08-31T01:56:01;100617.53;;;14.43;85.53
68075;BME280;54864;52.002;5.468;2023-08-31T01:57:01;100622.00;;;14.42;84.78
68075;BME280;54864;52.002;5.468;2023-08-31T01:58:07;100625.88;;;14.22;85.57
68075;BME280;54864;52.002;5.468;2023-08-31T01:59:08;100623.69;;;14.29;85.63
68075;BME280;54864;52.002;5.468;2023-08-31T02:00:11;100625.97;;;14.35;84.88
68075;BME280;54864;52.002;5.468;2023-08-31T02:01:12;100615.16;;;14.24;85.28
68075;BME280;54864;52.002;5.468;2023-08-31T02:02:16;100614.78;;;14.30;85.55
68075;BME280;54864;52.002;5.468;2023-08-31T02:03:17;100614.59;;;14.33;84.92
68075;BME280;54864;52.002;5.468;2023-08-31T02:04:19;100618.88;;;14.36;84.75
68075;BME280;54864;52.002;5.468;2023-08-31T02:05:19;100625.00;;;14.22;84.76
68075;BME280;54864;52.002;5.468;2023-08-31T02:06:21;100621.13;;;14.27;85.01
68075;BME280;54864;52.002;5.468;2023-08-31T02:07:24;100617.53;;;14.28;84.56
68075;BME280;54864;52.002;5.468;2023-08-31T02:08:26;100622.66;;;14.32;84.26
68075;BME280;54864;52.002;5.468;2023-08-31T02:09:28;100624.63;;;14.28;84.58
68075;BME280;54864;52.002;5.468;2023-08-31T02:10:29;100626.31;;;14.29;84.21
68075;BME280;54864;52.002;5.468;2023-08-31T02:11:50;100622.16;;;14.25;83.90
68075;BME280;54864;52.002;5.468;2023-08-31T02:12:51;100630.88;;;14.27;83.69
68075;BME280;54864;52.002;5.468;2023-08-31T02:13:53;100627.28;;;14.28;83.11
68075;BME280;54864;52.002;5.468;2023-08-31T02:14:53;100630.78;;;14.28;82.88
68075;BME280;54864;52.002;5.468;2023-08-31T02:15:54;100625.66;;;14.25;83.01
68075;BME280;54864;52.002;5.468;2023-08-31T02:16:56;100625.56;;;14.27;82.33
68075;BME280;54864;52.002;5.468;2023-08-31T02:18:03;100630.31;;;14.22;82.36
68075;BME280;54864;52.002;5.468;2023-08-31T02:19:04;100630.31;;;14.22;82.39
68075;BME280;54864;52.002;5.468;2023-08-31T02:20:06;100631.91;;;14.24;82.21
68075;BME280;54864;52.002;5.468;2023-08-31T02:21:08;100625.03;;;14.08;83.11
68075;BME280;54864;52.002;5.468;2023-08-31T02:22:09;100625.69;;;14.11;82.96
68075;BME280;54864;52.002;5.468;2023-08-31T02:23:14;100632.59;;;14.14;82.83
68075;BME280;54864;52.002;5.468;2023-08-31T02:24:14;100636.41;;;14.10;82.56
68075;BME280;54864;52.002;5.468;2023-08-31T02:25:17;100631.00;;;14.11;82.50
68075;BME280;54864;52.002;5.468;2023-08-31T02:26:18;100630.16;;;14.11;82.60
68075;BME280;54864;52.002;5.468;2023-08-31T02:27:19;100629.38;;;14.09;82.01
68075;BME280;54864;52.002;5.468;2023-08-31T02:28:21;100632.03;;;14.09;82.40
68075;BME280;54864;52.002;5.468;2023-08-31T02:29:22;100633.56;;;13.99;83.01
68075;BME280;54864;52.002;5.468;2023-08-31T02:30:23;100634.03;;;14.05;83.26
68075;BME280;54864;52.002;5.468;2023-08-31T02:31:25;100630.44;;;14.06;83.29
68075;BME280;54864;52.002;5.468;2023-08-31T02:32:25;100633.09;;;14.06;83.56
68075;BME280;54864;52.002;5.468;2023-08-31T02:33:27;100630.25;;;14.09;83.40
68075;BME280;54864;52.002;5.468;2023-08-31T02:34:28;100627.41;;;14.12;83.38
68075;BME280;54864;52.002;5.468;2023-08-31T02:35:30;100627.50;;;14.11;83.66
68075;BME280;54864;52.002;5.468;2023-08-31T02:36:30;100630.06;;;14.12;83.94
68075;BME280;54864;52.002;5.468;2023-08-31T02:37:32;100629.09;;;14.13;83.37
68075;BME280;54864;52.002;5.468;2023-08-31T02:38:36;100633.56;;;14.13;83.88
68075;BME280;54864;52.002;5.468;2023-08-31T02:39:38;100637.81;;;14.15;83.63
68075;BME280;54864;52.002;5.468;2023-08-31T02:40:40;100630.72;;;14.16;83.83
68075;BME280;54864;52.002;5.468;2023-08-31T02:41:42;100638.66;;;14.16;83.67
68075;BME280;54864;52.002;5.468;2023-08-31T02:42:42;100637.72;;;14.17;83.58
68075;BME280;54864;52.002;5.468;2023-08-31T02:43:46;100638.00;;;14.12;83.89
68075;BME280;54864;52.002;5.468;2023-08-31T02:44:51;100638.69;;;14.02;84.47
68075;BME280;54864;52.002;5.468;2023-08-31T02:45:59;100637.63;;;14.04;84.87
68075;BME280;54864;52.002;5.468;2023-08-31T02:47:00;100634.97;;;14.04;85.17
68075;BME280;54864;52.002;5.468;2023-08-31T02:48:03;100638.28;;;14.08;85.27
68075;BME280;54864;52.002;5.468;2023-08-31T02:49:05;100640.00;;;14.09;85.57
68075;BME280;54864;52.002;5.468;2023-08-31T02:50:12;100636.09;;;14.14;85.27
68075;BME280;54864;52.002;5.468;2023-08-31T02:51:13;100639.31;;;14.19;85.37
68075;BME280;54864;52.002;5.468;2023-08-31T02:52:16;100639.41;;;14.18;85.32
68075;BME280;54864;52.002;5.468;2023-08-31T02:53:18;100633.75;;;14.10;85.58
68075;BME280;54864;52.002;5.468;2023-08-31T02:54:22;100634.50;;;14.12;85.31
68075;BME280;54864;52.002;5.468;2023-08-31T02:55:23;100628.63;;;14.21;85.29
68075;BME280;54864;52.002;5.468;2023-08-31T02:56:26;100634.88;;;14.20;84.98
68075;BME280;54864;52.002;5.468;2023-08-31T02:57:28;100633.81;;;14.22;85.03
68075;BME280;54864;52.002;5.468;2023-08-31T02:58:29;100630.91;;;14.13;84.88
68075;BME280;54864;52.002;5.468;2023-08-31T02:59:32;100629.66;;;14.18;85.06
68075;BME280;54864;52.002;5.468;2023-08-31T03:00:36;100628.91;;;14.16;84.65
68075;BME280;54864;52.002;5.468;2023-08-31T03:01:42;100629.56;;;14.20;84.81
68075;BME280;54864;52.002;5.468;2023-08-31T03:02:46;100633.56;;;14.13;85.02
68075;BME280;54864;52.002;5.468;2023-08-31T03:03:48;100626.91;;;14.20;84.85
68075;BME280;54864;52.002;5.468;2023-08-31T03:04:48;100623.59;;;14.16;85.25
68075;BME280;54864;52.002;5.468;2023-08-31T03:05:55;100628.81;;;14.18;84.89
68075;BME280;54864;52.002;5.468;2023-08-31T03:06:56;100624.91;;;14.23;84.92
68075;BME280;54864;52.002;5.468;2023-08-31T03:07:58;100619.72;;;14.22;84.53
68075;BME280;54864;52.002;5.468;2023-08-31T03:08:58;100620.47;;;14.24;84.53
68075;BME280;54864;52.002;5.468;2023-08-31T03:10:02;100623.13;;;14.24;84.25
68075;BME280;54864;52.002;5.468;2023-08-31T03:11:08;100625.00;;;14.22;84.06
68075;BME280;54864;52.002;5.468;2023-08-31T03:12:11;100625.22;;;14.19;83.78
68075;BME280;54864;52.002;5.468;2023-08-31T03:13:12;100628.91;;;14.16;83.78
68075;BME280;54864;52.002;5.468;2023-08-31T03:14:14;100615.34;;;14.21;83.31
68075;BME280;54864;52.002;5.468;2023-08-31T03:15:17;100622.66;;;14.17;83.38
68075;BME280;54864;52.002;5.468;2023-08-31T03:16:19;100617.75;;;14.11;83.49
68075;BME280;54864;52.002;5.468;2023-08-31T03:17:20;100616.59;;;14.15;83.72
68075;BME280;54864;52.002;5.468;2023-08-31T03:18:22;100621.34;;;14.10;83.74
68075;BME280;54864;52.002;5.468;2023-08-31T03:19:22;100619.63;;;14.09;84.03
68075;BME280;54864;52.002;5.468;2023-08-31T03:20:28;100620.97;;;14.02;84.22
68075;BME280;54864;52.002;5.468;2023-08-31T03:21:31;100623.53;;;14.04;84.57
68075;BME280;54864;52.002;5.468;2023-08-31T03:22:35;100630.72;;;14.02;84.99
68075;BME280;54864;52.002;5.468;2023-08-31T03:23:36;100625.44;;;14.02;85.66
68075;BME280;54864;52.002;5.468;2023-08-31T03:24:38;100615.41;;;13.92;87.78
68075;BME280;54864;52.002;5.468;2023-08-31T03:25:41;100615.31;;;13.94;87.75
68075;BME280;54864;52.002;5.468;2023-08-31T03:26:43;100626.28;;;14.02;87.00
68075;BME280;54864;52.002;5.468;2023-08-31T03:27:45;100618.97;;;14.06;86.77
68075;BME280;54864;52.002;5.468;2023-08-31T03:28:47;100622.78;;;14.02;86.55
68075;BME280;54864;52.002;5.468;2023-08-31T03:29:48;100617.09;;;14.08;86.60
68075;BME280;54864;52.002;5.468;2023-08-31T03:30:54;100618.88;;;14.07;86.43
68075;BME280;54864;52.002;5.468;2023-08-31T03:31:55;100621.06;;;14.01;87.10
68075;BME280;54864;52.002;5.468;2023-08-31T03:32:57;100617.09;;;14.08;87.08
68075;BME280;54864;52.002;5.468;2023-08-31T03:33:58;100626.84;;;14.07;87.17
68075;BME280;54864;52.002;5.468;2023-08-31T03:35:02;100620.41;;;14.11;86.66
68075;BME280;54864;52.002;5.468;2023-08-31T03:36:03;100622.09;;;14.12;86.88
68075;BME280;54864;52.002;5.468;2023-08-31T03:37:05;100624.66;;;14.14;87.35
68075;BME280;54864;52.002;5.468;2023-08-31T03:38:06;100620.84;;;14.18;87.62
68075;BME280;54864;52.002;5.468;2023-08-31T03:39:11;100621.16;;;14.13;87.71
68075;BME280;54864;52.002;5.468;2023-08-31T03:40:11;100626.00;;;14.07;88.86
68075;BME280;54864;52.002;5.468;2023-08-31T03:41:12;100617.19;;;14.06;88.95
68075;BME280;54864;52.002;5.468;2023-08-31T03:42:14;100625.31;;;14.17;88.45
68075;BME280;54864;52.002;5.468;2023-08-31T03:43:19;100624.00;;;14.10;88.51
68075;BME280;54864;52.002;5.468;2023-08-31T03:44:20;100627.88;;;14.19;88.48
68075;BME280;54864;52.002;5.468;2023-08-31T03:45:22;100623.22;;;14.22;88.00
68075;BME280;54864;52.002;5.468;2023-08-31T03:46:23;100616.75;;;14.26;88.49
68075;BME280;54864;52.002;5.468;2023-08-31T03:47:28;100619.31;;;14.28;87.76
68075;BME280;54864;52.002;5.468;2023-08-31T03:48:28;100620.97;;;14.31;87.52
68075;BME280;54864;52.002;5.468;2023-08-31T03:49:30;100628.03;;;14.30;87.61
68075;BME280;54864;52.002;5.468;2023-08-31T03:50:36;100625.00;;;14.36;87.16
68075;BME280;54864;52.002;5.468;2023-08-31T03:51:38;100630.03;;;14.41;86.88
68075;BME280;54864;52.002;5.468;2023-08-31T03:52:39;100623.13;;;14.38;86.63
68075;BME280;54864;52.002;5.468;2023-08-31T03:53:41;100622.06;;;14.41;86.65
68075;BME280;54864;52.002;5.468;2023-08-31T03:54:42;100620.75;;;14.48;86.35
68075;BME280;54864;52.002;5.468;2023-08-31T03:55:43;100620.75;;;14.48;86.31
68075;BME280;54864;52.002;5.468;2023-08-31T03:56:44;100615.91;;;14.54;86.09
68075;BME280;54864;52.002;5.468;2023-08-31T03:57:48;100614.09;;;14.55;86.20
68075;BME280;54864;52.002;5.468;2023-08-31T03:58:51;100621.00;;;14.57;85.86
68075;BME280;54864;52.002;5.468;2023-08-31T03:59:52;100624.50;;;14.58;85.90
68075;BME280;54864;52.002;5.468;2023-08-31T04:00:54;100624.31;;;14.61;85.81
68075;BME280;54864;52.002;5.468;2023-08-31T04:01:59;100625.06;;;14.63;85.61
68075;BME280;54864;52.002;5.468;2023-08-31T04:02:59;100621.66;;;14.61;85.47
68075;BME280;54864;52.002;5.468;2023-08-31T04:04:01;100634.41;;;14.69;85.66
68075;BME280;54864;52.002;5.468;2023-08-31T04:05:06;100626.22;;;14.59;85.91
68075;BME280;54864;52.002;5.468;2023-08-31T04:06:14;100624.97;;;14.65;85.82
68075;BME280;54864;52.002;5.468;2023-08-31T04:07:16;100628.25;;;14.68;86.02
68075;BME280;54864;52.002;5.468;2023-08-31T04:08:17;100626.47;;;14.69;86.07
68075;BME280;54864;52.002;5.468;2023-08-31T04:09:20;100623.72;;;14.70;86.21
68075;BME280;54864;52.002;5.468;2023-08-31T04:10:22;100626.09;;;14.61;87.50
68075;BME280;54864;52.002;5.468;2023-08-31T04:11:27;100626.75;;;14.64;87.60
68075;BME280;54864;52.002;5.468;2023-08-31T04:12:28;100632.81;;;14.66;87.96
68075;BME280;54864;52.002;5.468;2023-08-31T04:13:30;100635.56;;;14.65;88.37
68075;BME280;54864;52.002;5.468;2023-08-31T04:14:39;100631.75;;;14.69;88.00
68075;BME280;54864;52.002;5.468;2023-08-31T04:15:41;100628.16;;;14.70;88.17
68075;BME280;54864;52.002;5.468;2023-08-31T04:16:43;100639.63;;;14.70;88.87
68075;BME280;54864;52.002;5.468;2023-08-31T04:17:46;100639.31;;;14.75;88.64
68075;BME280;54864;52.002;5.468;2023-08-31T04:18:50;100650.50;;;14.80;88.34
68075;BME280;54864;52.002;5.468;2023-08-31T04:19:52;100639.97;;;14.78;88.45
68075;BME280;54864;52.002;5.468;2023-08-31T04:20:59;100646.78;;;14.82;89.09
68075;BME280;54864;52.002;5.468;2023-08-31T04:22:03;100642.13;;;14.86;89.13
68075;BME280;54864;52.002;5.468;2023-08-31T04:23:05;100654.53;;;14.85;89.71
68075;BME280;54864;52.002;5.468;2023-08-31T04:24:10;100644.34;;;14.79;90.58
68075;BME280;54864;52.002;5.468;2023-08-31T04:25:15;100646.47;;;14.87;90.52
68075;BME280;54864;52.002;5.468;2023-08-31T04:26:16;100638.97;;;14.94;89.85
68075;BME280;54864;52.002;5.468;2023-08-31T04:27:19;100654.63;;;14.98;89.71
68075;BME280;54864;52.002;5.468;2023-08-31T04:28:19;100656.53;;;14.96;89.67
68075;BME280;54864;52.002;5.468;2023-08-31T04:29:24;100655.56;;;14.97;89.58
68075;BME280;54864;52.002;5.468;2023-08-31T04:30:26;100658.88;;;15.01;89.50
68075;BME280;54864;52.002;5.468;2023-08-31T04:31:28;100650.16;;;14.99;89.55
68075;BME280;54864;52.002;5.468;2023-08-31T04:32:29;100652.06;;;14.97;89.96
68075;BME280;54864;52.002;5.468;2023-08-31T04:33:29;100663.97;;;15.04;89.69
68075;BME280;54864;52.002;5.468;2023-08-31T04:34:31;100655.84;;;14.93;89.37
68075;BME280;54864;52.002;5.468;2023-08-31T04:35:32;100664.00;;;14.89;90.20
68075;BME280;54864;52.002;5.468;2023-08-31T04:36:34;100666.56;;;14.91;90.34
68075;BME280;54864;52.002;5.468;2023-08-31T04:37:35;100666.28;;;14.96;90.27
68075;BME280;54864;52.002;5.468;2023-08-31T04:38:37;100673.31;;;14.97;89.64
68075;BME280;54864;52.002;5.468;2023-08-31T04:39:38;100676.81;;;14.97;89.85
68075;BME280;54864;52.002;5.468;2023-08-31T04:40:51;100677.34;;;15.02;89.97
68075;BME280;54864;52.002;5.468;2023-08-31T04:41:52;100679.91;;;15.04;89.55
68075;BME280;54864;52.002;5.468;2023-08-31T04:42:53;100674.16;;;14.97;89.87
68075;BME280;54864;52.002;5.468;2023-08-31T04:44:01;100672.25;;;14.99;89.70
68075;BME280;54864;52.002;5.468;2023-08-31T04:45:02;100679.56;;;14.96;89.31
68075;BME280;54864;52.002;5.468;2023-08-31T04:46:05;100682.22;;;14.96;89.56
68075;BME280;54864;52.002;5.468;2023-08-31T04:47:08;100679.06;;;15.03;88.75
68075;BME280;54864;52.002;5.468;2023-08-31T04:48:10;100690.44;;;15.05;88.79
68075;BME280;54864;52.002;5.468;2023-08-31T04:49:11;100685.41;;;15.01;88.31
68075;BME280;54864;52.002;5.468;2023-08-31T04:50:18;100687.97;;;15.02;88.82
68075;BME280;54864;52.002;5.468;2023-08-31T04:51:29;100692.16;;;14.92;88.68
68075;BME280;54864;52.002;5.468;2023-08-31T04:52:37;100692.34;;;15.03;89.00
68075;BME280;54864;52.002;5.468;2023-08-31T04:53:38;100686.91;;;15.05;88.85
68075;BME280;54864;52.002;5.468;2023-08-31T04:54:40;100685.75;;;15.09;88.80
68075;BME280;54864;52.002;5.468;2023-08-31T04:55:40;100688.53;;;15.07;88.82
68075;BME280;54864;52.002;5.468;2023-08-31T04:56:42;100694.19;;;15.15;88.47
68075;BME280;54864;52.002;5.468;2023-08-31T04:57:44;100695.13;;;15.14;88.46
68075;BME280;54864;52.002;5.468;2023-08-31T04:58:52;100686.66;;;15.22;88.16
68075;BME280;54864;52.002;5.468;2023-08-31T04:59:53;100684.75;;;15.24;87.94
68075;BME280;54864;52.002;5.468;2023-08-31T05:00:58;100686.03;;;15.31;87.44
68075;BME280;54864;52.002;5.468;2023-08-31T05:02:00;100690.06;;;15.24;87.47
68075;BME280;54864;52.002;5.468;2023-08-31T05:03:01;100695.16;;;15.27;87.84
68075;BME280;54864;52.002;5.468;2023-08-31T05:04:06;100701.22;;;15.29;87.16
68075;BME280;54864;52.002;5.468;2023-08-31T05:05:11;100693.34;;;15.28;87.34
68075;BME280;54864;52.002;5.468;2023-08-31T05:06:11;100697.69;;;15.16;86.84
68075;BME280;54864;52.002;5.468;2023-08-31T05:07:16;100708.09;;;15.19;87.18
68075;BME280;54864;52.002;5.468;2023-08-31T05:08:17;100712.16;;;15.25;87.42
68075;BME280;54864;52.002;5.468;2023-08-31T05:09:18;100712.25;;;15.23;87.15
68075;BME280;54864;52.002;5.468;2023-08-31T05:10:22;100717.47;;;15.25;86.82
68075;BME280;54864;52.002;5.468;2023-08-31T05:11:23;100719.56;;;15.19;87.14
68075;BME280;54864;52.002;5.468;2023-08-31T05:12:27;100721.47;;;15.17;87.36
68075;BME280;54864;52.002;5.468;2023-08-31T05:13:29;100724.66;;;15.10;87.16
68075;BME280;54864;52.002;5.468;2023-08-31T05:14:29;100722.09;;;15.08;87.72
68075;BME280;54864;52.002;5.468;2023-08-31T05:15:32;100724.59;;;14.97;88.17
68075;BME280;54864;52.002;5.468;2023-08-31T05:16:34;100729.84;;;15.11;88.19
68075;BME280;54864;52.002;5.468;2023-08-31T05:17:37;100726.25;;;15.12;87.86
68075;BME280;54864;52.002;5.468;2023-08-31T05:18:41;100736.34;;;15.20;87.56
68075;BME280;54864;52.002;5.468;2023-08-31T05:19:42;100736.56;;;15.17;87.54
68075;BME280;54864;52.002;5.468;2023-08-31T05:20:46;100726.50;;;15.22;87.32
68075;BME280;54864;52.002;5.468;2023-08-31T05:21:49;100725.34;;;15.26;87.01
68075;BME280;54864;52.002;5.468;2023-08-31T05:22:55;100728.41;;;15.20;87.14
68075;BME280;54864;52.002;5.468;2023-08-31T05:23:59;100731.34;;;15.15;87.81
68075;BME280;54864;52.002;5.468;2023-08-31T05:25:03;100739.41;;;15.14;87.46
68075;BME280;54864;52.002;5.468;2023-08-31T05:26:05;100728.34;;;15.07;87.73
68075;BME280;54864;52.002;5.468;2023-08-31T05:27:06;100730.59;;;15.13;87.73
68075;BME280;54864;52.002;5.468;2023-08-31T05:28:10;100725.00;;;15.18;87.69
68075;BME280;54864;52.002;5.468;2023-08-31T05:29:11;100721.69;;;15.14;87.43
68075;BME280;54864;52.002;5.468;2023-08-31T05:30:16;100718.41;;;15.23;87.24
68075;BME280;54864;52.002;5.468;2023-08-31T05:31:17;100723.84;;;15.22;87.38